createdAt,value
2022-08-14T00:00:43.662Z,87.85
2022-08-14T00:01:43.685Z,87.29
2022-08-14T00:02:44.759Z,87.40
2022-08-14T00:03:43.648Z,87.80
2022-08-14T00:04:44.988Z,87.65
2022-08-14T00:05:44.330Z,87.76
2022-08-14T00:06:43.622Z,87.85
2022-08-14T00:07:43.705Z,87.65
2022-08-14T00:08:45.433Z,87.80
2022-08-14T00:10:01.988Z,87.85
2022-08-14T00:10:52.050Z,87.80
2022-08-14T00:11:44.605Z,88.00
2022-08-14T00:12:43.711Z,88.00
2022-08-14T00:13:43.599Z,88.10
2022-08-14T00:14:44.606Z,88.40
2022-08-14T00:15:48.063Z,88.30
2022-08-14T00:16:44.962Z,88.40
2022-08-14T00:17:47.840Z,88.30
2022-08-14T00:19:06.292Z,88.65
2022-08-14T00:19:44.560Z,88.70
2022-08-14T00:20:43.549Z,88.95
2022-08-14T00:21:43.544Z,88.45
2022-08-14T00:22:56.476Z,88.45
2022-08-14T00:23:44.553Z,88.75
2022-08-14T00:24:44.538Z,89.05
2022-08-14T00:25:43.507Z,88.85
2022-08-14T00:26:44.502Z,89.15
2022-08-14T00:27:43.514Z,88.85
2022-08-14T00:28:44.511Z,89.05
2022-08-14T00:29:43.528Z,88.85
2022-08-14T00:30:43.496Z,88.85
2022-08-14T00:31:45.549Z,88.75
2022-08-14T00:32:51.978Z,88.75
2022-08-14T00:33:52.247Z,88.85
2022-08-14T00:34:47.080Z,88.65
2022-08-14T00:36:35.991Z,88.45
2022-08-14T00:36:49.271Z,88.34
2022-08-14T00:37:43.448Z,88.90
2022-08-14T00:38:43.442Z,88.24
2022-08-14T00:39:43.481Z,88.24
2022-08-14T00:40:46.373Z,88.85
2022-08-14T00:41:43.438Z,88.45
2022-08-14T00:42:55.158Z,88.24
2022-08-14T00:43:44.412Z,88.54
2022-08-14T00:44:43.416Z,88.59
2022-08-14T00:45:43.439Z,88.54
2022-08-14T00:46:44.409Z,88.68
2022-08-14T00:47:45.213Z,89.39
2022-08-14T00:48:43.387Z,89.90
2022-08-14T00:49:43.693Z,90.10
2022-08-14T00:50:43.389Z,89.39
2022-08-14T00:51:43.394Z,90.20
2022-08-14T00:52:43.504Z,90.00
2022-08-14T00:53:43.751Z,89.19
2022-08-14T00:54:43.351Z,90.30
2022-08-14T00:55:43.367Z,90.14
2022-08-14T00:56:43.366Z,90.20
2022-08-14T00:57:43.338Z,90.10
2022-08-14T00:58:45.041Z,90.34
2022-08-14T00:59:44.337Z,90.45
2022-08-14T01:00:50.970Z,90.24
2022-08-14T01:01:44.409Z,91.09
2022-08-14T01:02:43.510Z,91.15
2022-08-14T01:03:43.312Z,90.95
2022-08-14T01:04:54.391Z,91.70
2022-08-14T01:05:51.771Z,91.25
2022-08-14T01:06:44.285Z,91.19
2022-08-14T01:07:50.301Z,91.35
2022-08-14T01:08:51.911Z,91.15
2022-08-14T01:09:44.332Z,91.35
2022-08-14T01:10:43.291Z,91.25
2022-08-14T01:11:45.034Z,91.25
2022-08-14T01:12:43.548Z,90.65
2022-08-14T01:13:43.447Z,90.99
2022-08-14T01:14:44.232Z,91.05
2022-08-14T01:15:58.397Z,90.95
2022-08-14T01:16:44.226Z,91.19
2022-08-14T01:17:45.863Z,91.19
2022-08-14T01:18:44.259Z,90.95
2022-08-14T01:19:44.224Z,90.75
2022-08-14T01:20:43.215Z,90.59
2022-08-14T01:21:47.227Z,90.69
2022-08-14T01:22:45.109Z,90.59
2022-08-14T01:23:47.095Z,91.50
2022-08-14T01:24:43.579Z,91.39
2022-08-14T01:25:43.185Z,91.39
2022-08-14T01:26:43.793Z,91.30
2022-08-14T01:27:57.694Z,91.50
2022-08-14T01:28:56.543Z,91.50
2022-08-14T01:30:04.329Z,91.50
2022-08-14T01:30:44.140Z,91.74
2022-08-14T01:31:43.150Z,91.60
2022-08-14T01:32:43.186Z,91.60
2022-08-14T01:33:59.336Z,91.90
2022-08-14T01:35:17.492Z,91.70
2022-08-14T01:36:03.816Z,91.80
2022-08-14T01:36:44.118Z,92.00
2022-08-14T01:37:44.184Z,91.50
2022-08-14T01:38:44.199Z,91.64
2022-08-14T01:39:44.144Z,91.90
2022-08-14T01:40:43.100Z,91.70
2022-08-14T01:41:43.392Z,91.44
2022-08-14T01:42:44.205Z,91.54
2022-08-14T01:43:43.072Z,91.85
2022-08-14T01:44:44.087Z,91.74
2022-08-14T01:45:48.987Z,91.44
2022-08-14T01:46:43.062Z,91.54
2022-08-14T01:47:43.075Z,91.50
2022-08-14T01:48:43.055Z,91.44
2022-08-14T01:49:46.290Z,91.44
2022-08-14T01:50:44.258Z,92.05
2022-08-14T01:51:43.037Z,91.54
2022-08-14T01:52:59.812Z,91.85
2022-08-14T01:53:44.025Z,91.85
2022-08-14T01:54:43.078Z,92.14
2022-08-14T01:55:43.018Z,92.09
2022-08-14T01:56:43.037Z,92.60
2022-08-14T01:57:49.516Z,92.49
2022-08-14T01:58:58.007Z,92.49
2022-08-14T01:59:44.008Z,92.90
2022-08-14T02:00:42.979Z,92.60
2022-08-14T02:01:51.393Z,92.60
2022-08-14T02:02:46.437Z,92.80
2022-08-14T02:03:42.965Z,93.20
2022-08-14T02:04:57.172Z,93.10
2022-08-14T02:05:43.949Z,93.30
2022-08-14T02:06:42.928Z,93.40
2022-08-14T02:07:53.734Z,93.65
2022-08-14T02:08:53.147Z,93.60
2022-08-14T02:09:43.940Z,93.65
2022-08-14T02:10:47.315Z,93.35
2022-08-14T02:11:42.927Z,93.35
2022-08-14T02:12:43.115Z,93.65
2022-08-14T02:13:43.105Z,93.85
2022-08-14T02:14:59.246Z,94.36
2022-08-14T02:15:44.145Z,93.75
2022-08-14T02:16:42.903Z,93.95
2022-08-14T02:17:42.892Z,93.95
2022-08-14T02:18:42.993Z,93.85
2022-08-14T02:19:42.875Z,93.95
2022-08-14T02:20:42.853Z,93.85
2022-08-14T02:21:46.870Z,94.06
2022-08-14T02:22:47.418Z,94.46
2022-08-14T02:23:42.861Z,94.06
2022-08-14T02:24:45.136Z,93.44
2022-08-14T02:25:42.833Z,93.85
2022-08-14T02:28:19.142Z,93.85
2022-08-14T02:28:25.440Z,93.15
2022-08-14T02:28:57.423Z,92.44
2022-08-14T02:29:56.456Z,92.44
2022-08-14T02:30:43.819Z,92.33
2022-08-14T02:31:43.829Z,92.44
2022-08-14T02:32:42.806Z,92.94
2022-08-14T02:33:42.827Z,92.74
2022-08-14T02:34:42.791Z,92.54
2022-08-14T02:35:42.802Z,92.84
2022-08-14T02:37:04.801Z,92.40
2022-08-14T02:37:47.396Z,92.64
2022-08-14T02:38:43.774Z,92.54
2022-08-14T02:39:42.796Z,92.64
2022-08-14T02:40:42.860Z,92.54
2022-08-14T02:41:52.500Z,92.94
2022-08-14T02:42:55.269Z,93.19
2022-08-14T02:43:48.383Z,93.49
2022-08-14T02:44:43.120Z,93.55
2022-08-14T02:45:44.470Z,93.55
2022-08-14T02:46:42.827Z,94.06
2022-08-14T02:47:47.473Z,93.44
2022-08-14T02:49:03.523Z,93.55
2022-08-14T02:49:43.708Z,93.55
2022-08-14T02:50:42.702Z,93.59
2022-08-14T02:51:43.706Z,94.10
2022-08-14T02:52:57.880Z,94.50
2022-08-14T02:53:43.682Z,94.10
2022-08-14T02:54:42.684Z,93.90
2022-08-14T02:55:42.677Z,94.30
2022-08-14T02:57:14.301Z,94.20
2022-08-14T02:57:43.793Z,93.79
2022-08-14T02:58:42.659Z,93.19
2022-08-14T02:59:43.285Z,93.90
2022-08-14T03:00:42.666Z,93.49
2022-08-14T03:01:43.689Z,93.49
2022-08-14T03:02:55.887Z,93.39
2022-08-14T03:03:43.629Z,93.90
2022-08-14T03:04:42.625Z,93.59
2022-08-14T03:05:42.610Z,93.39
2022-08-14T03:06:57.940Z,93.63
2022-08-14T03:07:42.594Z,93.84
2022-08-14T03:08:46.084Z,94.50
2022-08-14T03:10:25.633Z,95.06
2022-08-14T03:10:48.662Z,95.36
2022-08-14T03:11:44.771Z,95.46
2022-08-14T03:12:42.554Z,95.46
2022-08-14T03:13:42.653Z,95.26
2022-08-14T03:14:43.564Z,95.21
2022-08-14T03:15:42.574Z,94.75
2022-08-14T03:16:42.540Z,94.14
2022-08-14T03:17:57.487Z,94.04
2022-08-14T03:18:43.682Z,94.10
2022-08-14T03:19:42.531Z,94.24
2022-08-14T03:20:42.534Z,94.35
2022-08-14T03:21:42.526Z,95.36
2022-08-14T03:22:42.578Z,94.65
2022-08-14T03:23:42.934Z,95.66
2022-08-14T03:24:42.635Z,94.95
2022-08-14T03:25:42.504Z,95.36
2022-08-14T03:26:42.501Z,95.66
2022-08-14T03:27:48.401Z,95.81
2022-08-14T03:28:42.474Z,94.85
2022-08-14T03:29:42.527Z,94.55
2022-08-14T03:30:42.468Z,95.36
2022-08-14T03:31:42.480Z,94.95
2022-08-14T03:32:42.520Z,94.85
2022-08-14T03:33:43.122Z,94.04
2022-08-14T03:34:48.514Z,94.24
2022-08-14T03:36:05.472Z,94.04
2022-08-14T03:37:28.781Z,94.04
2022-08-14T03:39:10.652Z,94.55
2022-08-14T03:39:14.959Z,94.14
2022-08-14T03:39:43.507Z,94.04
2022-08-14T03:40:42.471Z,93.94
2022-08-14T03:41:42.412Z,93.94
2022-08-14T03:42:42.449Z,94.49
2022-08-14T03:43:42.397Z,94.14
2022-08-14T03:45:20.037Z,94.55
2022-08-14T03:45:48.684Z,94.35
2022-08-14T03:46:52.232Z,94.95
2022-08-14T03:47:56.034Z,95.26
2022-08-14T03:48:43.382Z,95.20
2022-08-14T03:49:42.689Z,95.20
2022-08-14T03:50:42.356Z,95.91
2022-08-14T03:51:42.373Z,95.81
2022-08-14T03:52:55.687Z,95.71
2022-08-14T03:53:43.350Z,95.55
2022-08-14T03:54:42.335Z,95.20
2022-08-14T03:55:42.308Z,95.55
2022-08-14T03:56:43.363Z,95.75
2022-08-14T03:57:42.707Z,95.95
2022-08-14T03:58:42.330Z,96.56
2022-08-14T03:59:42.290Z,96.26
2022-08-14T04:00:44.805Z,96.51
2022-08-14T04:01:45.826Z,97.47
2022-08-14T04:02:46.763Z,96.97
2022-08-14T04:03:42.295Z,96.66
2022-08-14T04:04:42.284Z,96.87
2022-08-14T04:05:43.092Z,96.26
2022-08-14T04:06:44.523Z,96.15
2022-08-14T04:08:00.143Z,96.26
2022-08-14T04:08:43.268Z,96.36
2022-08-14T04:09:42.276Z,95.75
2022-08-14T04:10:42.254Z,96.46
2022-08-14T04:11:42.284Z,96.06
2022-08-14T04:12:42.373Z,95.65
2022-08-14T04:13:43.227Z,95.95
2022-08-14T04:14:42.250Z,96.15
2022-08-14T04:16:01.019Z,95.95
2022-08-14T04:16:42.233Z,96.56
2022-08-14T04:17:42.241Z,96.36
2022-08-14T04:18:42.446Z,96.56
2022-08-14T04:19:42.193Z,96.56
2022-08-14T04:20:54.329Z,96.46
2022-08-14T04:22:03.185Z,96.56
2022-08-14T04:22:43.372Z,95.86
2022-08-14T04:23:42.213Z,96.66
2022-08-14T04:24:42.189Z,96.26
2022-08-14T04:25:42.203Z,96.15
2022-08-14T04:26:43.353Z,96.26
2022-08-14T04:28:01.665Z,96.15
2022-08-14T04:29:08.943Z,96.15
2022-08-14T04:29:44.827Z,96.06
2022-08-14T04:30:43.159Z,96.06
2022-08-14T04:32:58.136Z,96.06
2022-08-14T04:33:10.698Z,96.06
2022-08-14T04:33:43.106Z,95.95
2022-08-14T04:34:42.287Z,95.86
2022-08-14T04:35:53.550Z,96.06
2022-08-14T04:36:42.096Z,96.15
2022-08-14T04:37:42.226Z,96.22
2022-08-14T04:38:42.084Z,96.26
2022-08-14T04:39:46.426Z,96.06
2022-08-14T04:40:42.066Z,96.26
2022-08-14T04:41:43.164Z,96.06
2022-08-14T04:42:47.272Z,96.36
2022-08-14T04:43:43.157Z,96.56
2022-08-14T04:44:42.058Z,95.95
2022-08-14T04:45:43.046Z,97.38
2022-08-14T04:46:56.250Z,97.17
2022-08-14T04:47:46.413Z,96.46
2022-08-14T04:48:43.734Z,96.56
2022-08-14T04:49:46.592Z,96.62
2022-08-14T04:50:44.534Z,97.23
2022-08-14T04:51:55.455Z,96.82
2022-08-14T04:52:43.182Z,96.72
2022-08-14T04:53:43.417Z,96.31
2022-08-14T04:54:42.046Z,96.51
2022-08-14T04:55:41.999Z,96.31
2022-08-14T04:56:42.736Z,96.42
2022-08-14T04:57:41.991Z,96.51
2022-08-14T04:58:41.979Z,96.47
2022-08-14T04:59:42.901Z,96.42
2022-08-14T05:00:41.974Z,96.31
2022-08-14T05:01:47.898Z,95.91
2022-08-14T05:02:43.311Z,96.27
2022-08-14T05:03:41.957Z,96.37
2022-08-14T05:04:45.152Z,95.97
2022-08-14T05:05:42.989Z,95.66
2022-08-14T05:06:41.952Z,95.82
2022-08-14T05:07:54.311Z,96.02
2022-08-14T05:08:57.040Z,95.82
2022-08-14T05:09:43.875Z,96.22
2022-08-14T05:10:44.173Z,96.12
2022-08-14T05:11:41.941Z,95.82
2022-08-14T05:13:13.018Z,95.98
2022-08-14T05:14:53.454Z,95.37
2022-08-14T05:15:42.900Z,95.57
2022-08-14T05:16:42.002Z,95.57
2022-08-14T05:17:44.085Z,95.47
2022-08-14T05:19:24.775Z,96.03
2022-08-14T05:19:44.273Z,94.76
2022-08-14T05:21:55.938Z,95.22
2022-08-14T05:21:59.859Z,95.43
2022-08-14T05:22:43.094Z,94.72
2022-08-14T05:23:42.061Z,94.31
2022-08-14T05:24:41.833Z,95.12
2022-08-14T05:25:41.811Z,95.32
2022-08-14T05:26:41.822Z,94.27
2022-08-14T05:27:41.940Z,94.27
2022-08-14T05:28:41.818Z,93.56
2022-08-14T05:29:41.963Z,93.46
2022-08-14T05:30:41.796Z,93.96
2022-08-14T05:31:41.774Z,93.36
2022-08-14T05:32:41.919Z,93.56
2022-08-14T05:33:41.790Z,93.56
2022-08-14T05:34:41.776Z,93.87
2022-08-14T05:35:42.601Z,93.62
2022-08-14T05:36:41.804Z,93.62
2022-08-14T05:37:46.072Z,93.52
2022-08-14T05:38:41.877Z,93.72
2022-08-14T05:39:41.776Z,93.21
2022-08-14T05:40:41.794Z,93.27
2022-08-14T05:41:53.499Z,93.27
2022-08-14T05:42:42.743Z,93.07
2022-08-14T05:43:42.747Z,92.66
2022-08-14T05:44:41.728Z,92.26
2022-08-14T05:45:41.748Z,92.57
2022-08-14T05:46:41.700Z,92.52
2022-08-14T05:47:41.741Z,92.93
2022-08-14T05:48:43.062Z,92.42
2022-08-14T05:49:41.725Z,92.52
2022-08-14T05:50:41.699Z,92.12
2022-08-14T05:51:41.679Z,92.52
2022-08-14T05:52:41.694Z,92.58
2022-08-14T05:53:42.151Z,92.72
2022-08-14T05:54:41.817Z,92.27
2022-08-14T05:55:44.249Z,92.58
2022-08-14T05:56:41.676Z,92.58
2022-08-14T05:57:41.661Z,92.23
2022-08-14T05:58:41.719Z,92.13
2022-08-14T05:59:41.638Z,92.03
2022-08-14T06:00:41.672Z,91.93
2022-08-14T06:01:41.670Z,91.73
2022-08-14T06:02:41.633Z,91.63
2022-08-14T06:03:41.634Z,91.18
2022-08-14T06:04:41.630Z,90.78
2022-08-14T06:05:41.638Z,91.08
2022-08-14T06:06:41.617Z,90.64
2022-08-14T06:07:41.600Z,90.23
2022-08-14T06:08:41.971Z,90.03
2022-08-14T06:09:41.583Z,89.83
2022-08-14T06:10:41.599Z,89.12
2022-08-14T06:11:41.679Z,88.68
2022-08-14T06:12:55.554Z,88.18
2022-08-14T06:13:44.999Z,87.93
2022-08-14T06:14:41.591Z,87.87
2022-08-14T06:15:41.553Z,88.03
2022-08-14T06:16:41.662Z,87.93
2022-08-14T06:17:46.994Z,87.93
2022-08-14T06:18:42.541Z,88.43
2022-08-14T06:19:41.523Z,87.89
2022-08-14T06:20:41.531Z,88.19
2022-08-14T06:21:41.517Z,87.75
2022-08-14T06:22:41.536Z,87.45
2022-08-14T06:23:41.504Z,86.94
2022-08-14T06:24:44.069Z,86.20
2022-08-14T06:25:41.482Z,86.30
2022-08-14T06:26:41.489Z,85.90
2022-08-14T06:27:42.600Z,86.00
2022-08-14T06:28:41.477Z,85.90
2022-08-14T06:29:41.487Z,86.06
2022-08-14T06:30:45.583Z,85.75
2022-08-14T06:31:42.486Z,85.46
2022-08-14T06:32:42.142Z,85.11
2022-08-14T06:35:02.186Z,85.41
2022-08-14T06:35:11.738Z,85.58
2022-08-14T06:35:42.453Z,85.27
2022-08-14T06:36:41.436Z,84.97
2022-08-14T06:37:41.617Z,84.27
2022-08-14T06:38:41.522Z,84.13
2022-08-14T06:39:41.408Z,82.79
2022-08-14T06:40:43.058Z,83.49
2022-08-14T06:41:57.953Z,83.15
2022-08-14T06:42:42.409Z,82.45
2022-08-14T06:43:45.183Z,83.35
2022-08-14T06:44:41.402Z,81.81
2022-08-14T06:45:42.081Z,81.24
2022-08-14T06:46:41.395Z,81.30
2022-08-14T06:47:43.955Z,81.81
2022-08-14T06:48:41.943Z,81.51
2022-08-14T06:49:45.005Z,81.01
2022-08-14T06:50:41.394Z,80.91
2022-08-14T06:51:44.501Z,81.17
2022-08-14T06:52:41.344Z,81.17
2022-08-14T06:53:42.331Z,80.47
2022-08-14T06:54:42.475Z,81.93
2022-08-14T06:55:41.350Z,80.29
2022-08-14T06:56:44.165Z,79.16
2022-08-14T06:57:41.327Z,79.32
2022-08-14T06:58:41.321Z,77.08
2022-08-14T06:59:41.295Z,76.28
2022-08-14T07:00:41.404Z,76.68
2022-08-14T07:01:41.353Z,76.08
2022-08-14T07:02:43.430Z,75.68
2022-08-14T07:03:42.286Z,74.55
2022-08-14T07:04:41.273Z,75.45
2022-08-14T07:05:41.293Z,76.21
2022-08-14T07:06:46.664Z,74.51
2022-08-14T07:07:41.274Z,73.38
2022-08-14T07:08:41.288Z,73.94
2022-08-14T07:09:50.725Z,73.44
2022-08-14T07:10:42.298Z,74.24
2022-08-14T07:11:41.259Z,71.75
2022-08-14T07:13:01.814Z,72.08
2022-08-14T07:13:42.249Z,71.39
2022-08-14T07:14:41.231Z,71.19
2022-08-14T07:15:42.370Z,70.75
2022-08-14T07:16:41.327Z,70.65
2022-08-14T07:17:41.227Z,71.12
2022-08-14T07:18:41.232Z,69.92
2022-08-14T07:19:41.205Z,69.20
2022-08-14T07:20:42.131Z,68.63
2022-08-14T07:21:41.227Z,69.49
2022-08-14T07:22:56.388Z,70.03
2022-08-14T07:23:44.306Z,69.29
2022-08-14T07:24:41.182Z,68.16
2022-08-14T07:25:42.173Z,67.67
2022-08-14T07:26:41.174Z,67.57
2022-08-14T07:27:42.864Z,68.50
2022-08-14T07:28:43.241Z,69.56
2022-08-14T07:29:41.170Z,68.16
2022-08-14T07:30:41.942Z,68.70
2022-08-14T07:31:42.172Z,67.50
2022-08-14T07:32:41.178Z,68.30
2022-08-14T07:33:41.815Z,69.29
2022-08-14T07:34:41.508Z,67.80
2022-08-14T07:35:57.960Z,68.99
2022-08-14T07:36:57.962Z,69.09
2022-08-14T07:37:41.141Z,69.39
2022-08-14T07:38:41.166Z,69.39
2022-08-14T07:39:43.984Z,68.07
2022-08-14T07:40:41.099Z,66.35
2022-08-14T07:41:42.454Z,67.04
2022-08-14T07:42:41.168Z,66.94
2022-08-14T07:43:41.105Z,66.81
2022-08-14T07:44:46.379Z,65.69
2022-08-14T07:45:42.101Z,64.86
2022-08-14T07:46:41.062Z,65.13
2022-08-14T07:47:41.075Z,63.09
2022-08-14T07:48:41.339Z,61.67
2022-08-14T07:49:41.084Z,60.65
2022-08-14T07:50:41.074Z,60.69
2022-08-14T07:51:41.038Z,60.62
2022-08-14T07:52:42.364Z,60.32
2022-08-14T07:53:41.263Z,60.39
2022-08-14T07:54:41.144Z,60.56
2022-08-14T07:55:41.019Z,59.45
2022-08-14T07:56:47.510Z,58.56
2022-08-14T07:57:42.010Z,57.84
2022-08-14T07:58:51.890Z,57.15
2022-08-14T07:59:44.271Z,57.81
2022-08-14T08:00:40.975Z,56.53
2022-08-14T08:01:48.309Z,56.33
2022-08-14T08:02:41.991Z,57.12
2022-08-14T08:03:40.988Z,57.17
2022-08-14T08:04:40.945Z,55.95
2022-08-14T08:05:40.965Z,53.66
2022-08-14T08:06:40.953Z,55.51
2022-08-14T08:07:40.928Z,52.72
2022-08-14T08:08:40.968Z,51.91
2022-08-14T08:09:40.925Z,51.98
2022-08-14T08:11:01.424Z,51.81
2022-08-14T08:11:40.942Z,53.24
2022-08-14T08:12:40.973Z,53.86
2022-08-14T08:13:40.912Z,54.47
2022-08-14T08:14:55.660Z,54.64
2022-08-14T08:15:42.093Z,56.20
2022-08-14T08:16:40.889Z,52.28
2022-08-14T08:17:42.819Z,54.62
2022-08-14T08:18:41.899Z,54.17
2022-08-14T08:19:41.073Z,51.93
2022-08-14T08:20:40.895Z,52.95
2022-08-14T08:21:43.542Z,53.41
2022-08-14T08:22:40.880Z,53.06
2022-08-14T08:23:51.003Z,51.57
2022-08-14T08:24:41.870Z,50.04
2022-08-14T08:25:40.847Z,48.55
2022-08-14T08:26:40.971Z,49.38
2022-08-14T08:27:44.691Z,48.63
2022-08-14T08:28:43.758Z,47.11
2022-08-14T08:29:40.832Z,46.75
2022-08-14T08:30:49.259Z,46.75
2022-08-14T08:31:44.866Z,44.67
2022-08-14T08:32:41.968Z,46.01
2022-08-14T08:33:40.819Z,45.31
2022-08-14T08:34:40.809Z,42.76
2022-08-14T08:35:46.823Z,41.20
2022-08-14T08:36:41.924Z,42.79
2022-08-14T08:37:43.597Z,42.14
2022-08-14T08:39:18.774Z,42.79
2022-08-14T08:40:01.265Z,41.60
2022-08-14T08:40:42.190Z,41.81
2022-08-14T08:41:40.764Z,42.46
2022-08-14T08:42:44.869Z,43.33
2022-08-14T08:43:47.187Z,42.14
2022-08-14T08:44:40.776Z,43.55
2022-08-14T08:45:40.790Z,43.39
2022-08-14T08:46:40.763Z,41.35
2022-08-14T08:47:40.761Z,42.51
2022-08-14T08:48:50.157Z,41.52
2022-08-14T08:49:43.287Z,41.03
2022-08-14T08:51:30.680Z,41.60
2022-08-14T08:52:31.022Z,41.22
2022-08-14T08:53:26.221Z,40.95
2022-08-14T08:54:26.398Z,42.83
2022-08-14T08:55:27.351Z,46.74
2022-08-14T08:56:30.228Z,46.30
2022-08-14T08:57:28.330Z,44.74
2022-08-14T08:58:27.364Z,42.79
2022-08-14T08:59:31.157Z,42.73
2022-08-14T09:00:28.321Z,41.09
2022-08-14T09:01:27.337Z,40.70
2022-08-14T09:02:36.795Z,39.88
2022-08-14T09:03:27.764Z,39.65
2022-08-14T09:04:27.304Z,39.86
2022-08-14T09:05:27.331Z,40.64
2022-08-14T09:06:56.947Z,41.15
2022-08-14T09:07:28.298Z,41.56
2022-08-14T09:08:32.678Z,40.09
2022-08-14T09:09:30.460Z,39.43
2022-08-14T09:10:29.295Z,37.78
2022-08-14T09:11:27.282Z,38.70
2022-08-14T09:12:32.515Z,41.26
2022-08-14T09:13:30.572Z,37.80
2022-08-14T09:14:27.273Z,38.67
2022-08-14T09:15:27.253Z,37.70
2022-08-14T09:16:28.268Z,37.41
2022-08-14T09:17:27.851Z,38.50
2022-08-14T09:18:27.245Z,38.40
2022-08-14T09:19:27.241Z,38.17
2022-08-14T09:20:30.699Z,37.49
2022-08-14T09:21:31.157Z,37.88
2022-08-14T09:22:36.167Z,38.89
2022-08-14T09:23:34.879Z,38.09
2022-08-14T09:24:35.356Z,37.66
2022-08-14T09:26:00.756Z,38.06
2022-08-14T09:26:28.656Z,38.48
2022-08-14T09:27:27.229Z,38.48
2022-08-14T09:28:27.190Z,38.03
2022-08-14T09:29:28.806Z,39.82
2022-08-14T09:30:31.046Z,40.88
2022-08-14T09:31:27.181Z,40.93
2022-08-14T09:32:58.725Z,40.83
2022-08-14T09:33:27.189Z,38.32
2022-08-14T09:34:27.907Z,38.29
2022-08-14T09:35:27.826Z,38.91
2022-08-14T09:36:27.171Z,38.40
2022-08-14T09:37:27.184Z,38.03
2022-08-14T09:38:27.340Z,38.44
2022-08-14T09:39:27.225Z,37.99
2022-08-14T09:40:29.293Z,37.49
2022-08-14T09:41:27.143Z,41.41
2022-08-14T09:42:33.072Z,41.87
2022-08-14T09:43:27.246Z,41.01
2022-08-14T09:44:27.149Z,39.00
2022-08-14T09:45:30.372Z,37.82
2022-08-14T09:46:28.134Z,36.97
2022-08-14T09:47:27.115Z,38.65
2022-08-14T09:48:30.716Z,38.01
2022-08-14T09:49:28.231Z,38.23
2022-08-14T09:50:27.140Z,40.25
2022-08-14T09:51:32.907Z,39.88
2022-08-14T09:52:34.201Z,39.24
2022-08-14T09:54:12.693Z,38.44
2022-08-14T09:54:28.202Z,39.86
2022-08-14T09:55:27.838Z,38.42
2022-08-14T09:56:30.839Z,38.87
2022-08-14T09:57:27.680Z,35.88
2022-08-14T09:58:27.092Z,35.05
2022-08-14T09:59:28.370Z,34.97
2022-08-14T10:00:29.588Z,35.56
2022-08-14T10:01:27.075Z,35.28
2022-08-14T10:02:28.419Z,35.56
2022-08-14T10:03:28.714Z,35.27
2022-08-14T10:04:34.744Z,36.00
2022-08-14T10:05:28.159Z,34.41
2022-08-14T10:06:28.370Z,36.30
2022-08-14T10:07:27.035Z,37.08
2022-08-14T10:08:27.023Z,35.90
2022-08-14T10:09:28.054Z,37.68
2022-08-14T10:10:27.034Z,37.12
2022-08-14T10:11:34.967Z,37.99
2022-08-14T10:12:29.223Z,37.82
2022-08-14T10:13:27.021Z,37.30
2022-08-14T10:14:29.427Z,36.02
2022-08-14T10:15:27.762Z,35.78
2022-08-14T10:16:32.968Z,33.91
2022-08-14T10:17:32.920Z,34.57
2022-08-14T10:18:28.004Z,35.07
2022-08-14T10:19:26.991Z,35.74
2022-08-14T10:20:40.548Z,36.22
2022-08-14T10:21:28.003Z,35.67
2022-08-14T10:23:15.202Z,35.62
2022-08-14T10:23:33.974Z,33.99
2022-08-14T10:24:36.125Z,35.09
2022-08-14T10:25:27.977Z,34.71
2022-08-14T10:26:28.617Z,32.67
2022-08-14T10:27:27.157Z,33.20
2022-08-14T10:28:29.125Z,32.71
2022-08-14T10:29:26.940Z,33.33
2022-08-14T10:30:26.938Z,35.13
2022-08-14T10:31:27.113Z,35.82
2022-08-14T10:32:28.560Z,38.43
2022-08-14T10:33:26.926Z,38.49
2022-08-14T10:34:33.270Z,38.38
2022-08-14T10:35:30.924Z,35.86
2022-08-14T10:36:34.765Z,35.57
2022-08-14T10:37:28.142Z,37.23
2022-08-14T10:38:26.923Z,38.49
2022-08-14T10:39:26.920Z,41.07
2022-08-14T10:40:37.327Z,38.20
2022-08-14T10:41:31.739Z,37.35
2022-08-14T10:42:26.898Z,35.78
2022-08-14T10:43:26.886Z,34.44
2022-08-14T10:44:29.692Z,32.04
2022-08-14T10:45:26.879Z,33.12
2022-08-14T10:47:37.878Z,33.15
2022-08-14T10:47:40.604Z,33.67
2022-08-14T10:48:36.420Z,37.02
2022-08-14T10:49:27.867Z,36.53
2022-08-14T10:50:26.904Z,38.18
2022-08-14T10:51:26.892Z,37.15
2022-08-14T10:52:26.862Z,38.18
2022-08-14T10:53:26.860Z,36.46
2022-08-14T10:54:36.265Z,34.23
2022-08-14T10:55:26.845Z,33.23
2022-08-14T10:56:33.727Z,32.99
2022-08-14T10:57:27.832Z,32.21
2022-08-14T10:58:26.840Z,31.70
2022-08-14T10:59:35.484Z,32.28
2022-08-14T11:00:30.140Z,32.02
2022-08-14T11:01:27.823Z,32.12
2022-08-14T11:02:44.789Z,32.02
2022-08-14T11:03:55.197Z,32.04
2022-08-14T11:04:27.932Z,33.12
2022-08-14T11:05:26.844Z,33.25
2022-08-14T11:06:27.234Z,33.09
2022-08-14T11:07:26.793Z,33.96
2022-08-14T11:08:26.792Z,33.17
2022-08-14T11:09:31.467Z,34.59
2022-08-14T11:10:28.053Z,36.59
2022-08-14T11:11:26.771Z,36.94
2022-08-14T11:12:44.092Z,38.38
2022-08-14T11:13:28.813Z,38.38
2022-08-14T11:14:26.773Z,35.88
2022-08-14T11:15:26.785Z,35.29
2022-08-14T11:16:26.877Z,35.58
2022-08-14T11:17:26.753Z,36.33
2022-08-14T11:18:32.599Z,36.02
2022-08-14T11:19:26.756Z,37.05
2022-08-14T11:20:26.767Z,39.90
2022-08-14T11:21:26.861Z,41.00
2022-08-14T11:22:52.565Z,41.74
2022-08-14T11:23:27.723Z,40.86
2022-08-14T11:24:54.153Z,41.64
2022-08-14T11:25:43.858Z,42.86
2022-08-14T11:26:27.829Z,43.27
2022-08-14T11:27:33.439Z,41.76
2022-08-14T11:28:47.188Z,43.79
2022-08-14T11:29:27.810Z,45.30
2022-08-14T11:30:50.314Z,43.73
2022-08-14T11:31:27.715Z,43.14
2022-08-14T11:32:27.726Z,43.29
2022-08-14T11:33:26.683Z,40.53
2022-08-14T11:34:32.553Z,38.67
2022-08-14T11:35:26.675Z,37.73
2022-08-14T11:37:02.157Z,36.22
2022-08-14T11:37:36.357Z,35.61
2022-08-14T11:38:27.657Z,36.22
2022-08-14T11:39:34.555Z,36.30
2022-08-14T11:40:29.268Z,35.21
2022-08-14T11:41:26.652Z,35.91
2022-08-14T11:42:56.388Z,34.46
2022-08-14T11:43:29.478Z,32.15
2022-08-14T11:44:45.893Z,31.73
2022-08-14T11:45:29.896Z,31.26
2022-08-14T11:46:30.117Z,32.31
2022-08-14T11:47:35.603Z,32.36
2022-08-14T11:48:59.161Z,34.20
2022-08-14T11:49:26.634Z,35.60
2022-08-14T11:50:36.322Z,34.36
2022-08-14T11:51:30.429Z,33.83
2022-08-14T11:52:26.611Z,33.14
2022-08-14T11:53:26.618Z,33.34
2022-08-14T11:54:33.948Z,35.30
2022-08-14T11:55:27.578Z,36.80
2022-08-14T11:56:29.810Z,38.02
2022-08-14T11:57:26.602Z,38.82
2022-08-14T11:58:26.572Z,37.11
2022-08-14T11:59:32.907Z,36.70
2022-08-14T12:00:31.868Z,36.18
2022-08-14T12:01:26.598Z,35.96
2022-08-14T12:03:00.730Z,36.35
2022-08-14T12:03:46.263Z,37.15
2022-08-14T12:04:32.119Z,36.41
2022-08-14T12:05:26.597Z,36.75
2022-08-14T12:06:29.460Z,38.55
2022-08-14T12:07:27.574Z,38.82
2022-08-14T12:08:30.207Z,37.77
2022-08-14T12:09:26.547Z,36.47
2022-08-14T12:10:40.925Z,37.13
2022-08-14T12:11:27.535Z,35.18
2022-08-14T12:12:34.998Z,37.21
2022-08-14T12:13:27.554Z,36.53
2022-08-14T12:14:29.811Z,35.96
2022-08-14T12:15:27.070Z,37.38
2022-08-14T12:16:26.503Z,38.02
2022-08-14T12:17:26.484Z,39.04
2022-08-14T12:18:26.458Z,39.59
2022-08-14T12:19:26.482Z,40.66
2022-08-14T12:20:30.096Z,40.86
2022-08-14T12:21:29.539Z,39.86
2022-08-14T12:22:29.968Z,40.08
2022-08-14T12:23:26.440Z,41.05
2022-08-14T12:24:35.614Z,40.17
2022-08-14T12:25:27.453Z,41.09
2022-08-14T12:26:39.545Z,41.41
2022-08-14T12:27:26.430Z,42.19
2022-08-14T12:28:27.004Z,42.37
2022-08-14T12:29:27.435Z,41.56
2022-08-14T12:30:26.758Z,41.08
2022-08-14T12:31:26.625Z,41.17
2022-08-14T12:32:26.538Z,41.56
2022-08-14T12:33:31.182Z,41.35
2022-08-14T12:34:27.355Z,39.69
2022-08-14T12:35:26.406Z,39.86
2022-08-14T12:36:26.390Z,40.06
2022-08-14T12:37:26.481Z,41.42
2022-08-14T12:38:26.403Z,41.21
2022-08-14T12:39:26.403Z,39.82
2022-08-14T12:40:26.371Z,40.21
2022-08-14T12:41:28.054Z,40.06
2022-08-14T12:42:26.981Z,41.60
2022-08-14T12:43:27.375Z,39.74
2022-08-14T12:44:26.365Z,39.66
2022-08-14T12:45:26.350Z,40.95
2022-08-14T12:46:27.167Z,41.37
2022-08-14T12:47:26.350Z,40.19
2022-08-14T12:48:31.999Z,41.39
2022-08-14T12:49:27.324Z,41.80
2022-08-14T12:50:26.318Z,41.61
2022-08-14T12:51:27.334Z,41.80
2022-08-14T12:52:36.197Z,42.00
2022-08-14T12:53:26.314Z,41.90
2022-08-14T12:54:28.419Z,41.63